메인 페이지
METAR-TAF:

METAR-TAF

공항 :

프란시스코 방고이 국제공항

다바오, 필리핀

위도: 07-07N, 경도: 125-39E, 고도: 17m

현재 날씨관측

예보는 1 시간 10분 전, 07:00시(UTC)에 발표되었습니다.
남남동9kt남동풍과 남남서풍을 오가는
온도 31°C
습도 66%
기압 1007 hPa
시정 10km 이상
고도 1500ft 상공 구름 보통, 적란운.
고도 9000ft 상공 구름 많음

METAR: RPMD 210700Z 16009KT 130V200 9999 SCT015CB BKN090 31/24 Q1007 RMK A2974 CB W,SW N ,NE

시각: 16:10 (08:10 UTC)

예보

예보는 3 시간 10분 전, 05:00시(UTC)에 발표되었습니다.
예보 대상 시간: 21일 06시부터 22일 06시까지 (UTC)
7kt
시정 10km 이상
고도 1600ft 상공 구름 조금
고도 9000ft 상공 구름 많음
일시적
21일 06시부터 21일 12시까지 (UTC)
고도 1500ft 상공 구름 조금, 적란운.
고도 1600ft 상공 구름 보통
고도 8000ft 상공 구름 많음
약한소나기
일시적
21일 12시부터 21일 18시까지 (UTC)
서남서6kt
고도 1600ft 상공 구름 보통
고도 8000ft 상공 구름 많음
약한소나기
일시적
21일 18시부터 21일 24시까지 (UTC)
여러 방향의 바람 2kt

TAF: RPMD 210500Z 2106/2206 17007KT 9999 FEW016 BKN090 TEMPO 2106/2112 -SHRA FEW015CB SCT016 BKN080 TEMPO 2112/2118 24006KT -SHRA SCT016 BKN080 TEMPO 2118/2124 VRB02KT

4,000개 이상의 공항 관측 자료 및 예보 (METAR 및 TAF 보고).

지도상에서 검색 가능한 기상관측소가 노란 점과 빨간 점으로 표시되어 있습니다.

기상관측소 명을 보려면 표시 위로 마우스를 이동하세요.

날씨 관측과 예보를 보려면 클릭하세요.

지도 변경 : 확대하려면 엑스 표시가 있는 녹색 버튼, 축소하려면 빼기 표시가 있는 녹색 버튼, 다음 페이지의 지도를 보려면 녹색 화살표를 클릭하세요.


METAR-TAF: